Decoded Metar for KOSH (OSHKOSH in WI, USA) (IATA:OSH) | Meteo·Mobile Aviation Weather
aviador You're here:

KOSH Decoded Metar

OSHKOSH in WI, USA
Report Time2018-09-21 09:53:00
UTC Time2018-09-21 10:16:58
Flight Rules mvfr MVFR
Wind210° at 11 Gusting to 20 kt
W.Decomp.*RWY 22: 10.9 kt HW 1.3 kt LCW
RWY 18: 9.2 kt HW 6.0 kt RCW
RWY 27: 6.0 kt HW 9.2 kt LCW
RWY 13: 1.3 kt HW 10.9 kt RCW
W.Rank210° ranks 4
Current wind is above 210° avg. (8.1)
Visibility9999 m
Phenomena:N/A
Clouds:Broken 019 Hf
Broken 100 Hf
Expected CloudBase > 1,200 ft AGL from Temp-Dew spread
Ceiling1,900 ft
Temp21°C (ISA +8)
Dew Point18°C (83% RH)
AAT19.8°C
QNH1004 hPa
Density Alt2,283 ft
Elevation814 ft
Report Wrong Elevation
Raw Report
KOSH 210953Z AUTO 21011G20KT 10SM BKN019 BKN100 21/18 A2964 RMK
AO2 SLP025 T02060183=

Extra information for KOSH:More info

Metar Taf Metar & Taf Last 4 Metars F.Rules Stats Wind Profile Meteogram Temp Stats Airport Information Weather charts Add Link Nearby VenuesMetar ALERT Operation Metar Decoded Social comments

AIRNAV info for KOSH
EAA Airventure